Terminal Aerodrome Forecast
Issued by NWS Mt. Holly, NJ

Home | Current Version | Previous Version | Text Only | Print | Product List | Glossary On
Versions: 1 2 3 4 5 6 7 8 9 10 11 12
000
FTUS41 KPHI 310500
TAFTTN
TAF
KTTN 310526Z 3106/0106 19005KT P6SM SCT020 BKN040
      TEMPO 3108/3111 BKN015 OVC030
     FM311100 19005KT P6SM OVC015
     FM311500 23010KT P6SM SCT020 BKN035
     FM312100 23007KT 3SM SHRA SCT025 OVC050
     FM010200 24005KT 6SM BR VCSH SCT035 OVC080=

USA.gov is the U.S. government's official web portal to all federal, state and local government web resources and services.